createdAt,value
2022-09-15T00:03:02.940Z,99237.59
2022-09-15T00:08:05.792Z,99229.85
2022-09-15T00:13:08.511Z,99226.41
2022-09-15T00:18:11.291Z,99220.39
2022-09-15T00:23:15.333Z,99208.61
2022-09-15T00:28:22.319Z,99215.02
2022-09-15T00:33:25.012Z,99213.52
2022-09-15T00:38:27.667Z,99211.62
2022-09-15T00:43:55.554Z,99213.34
2022-09-15T00:49:07.260Z,99221.23
2022-09-15T00:54:22.454Z,99227.58
2022-09-15T00:59:27.527Z,99221.96
2022-09-15T01:04:30.197Z,99228.87
2022-09-15T01:09:52.124Z,99223.91
2022-09-15T01:14:54.894Z,99210.30
2022-09-15T01:20:23.650Z,99196.48
2022-09-15T01:25:44.579Z,99200.60
2022-09-15T01:31:01.021Z,99198.04
2022-09-15T01:36:45.386Z,99186.68
2022-09-15T01:41:57.320Z,99174.58
2022-09-15T01:47:04.036Z,99176.88
2022-09-15T01:52:06.722Z,99176.66
2022-09-15T01:57:09.489Z,99177.00
2022-09-15T02:02:16.876Z,99166.19
2022-09-15T02:07:31.961Z,99162.48
2022-09-15T02:12:52.810Z,99162.64
2022-09-15T02:17:55.752Z,99163.19
2022-09-15T02:23:26.286Z,99161.33
2022-09-15T02:28:31.240Z,99155.20
2022-09-15T02:33:37.767Z,99161.50
2022-09-15T02:38:45.633Z,99147.79
2022-09-15T02:43:49.359Z,99141.81
2022-09-15T02:48:53.446Z,99135.05
2022-09-15T02:53:56.191Z,99127.24
2022-09-15T02:58:58.852Z,99129.92
2022-09-15T03:04:02.963Z,99129.86
2022-09-15T03:09:07.541Z,99130.52
2022-09-15T03:14:10.288Z,99134.88
2022-09-15T03:19:12.993Z,99134.15
2022-09-15T03:24:15.628Z,99137.09
2022-09-15T03:29:18.334Z,99126.66
2022-09-15T03:34:21.007Z,99129.20
2022-09-15T03:39:24.486Z,99121.99
2022-09-15T03:44:27.485Z,99117.96
2022-09-15T03:49:30.231Z,99116.20
2022-09-15T03:54:32.954Z,99121.59
2022-09-15T03:59:35.617Z,99124.18
2022-09-15T04:04:38.418Z,99127.30
2022-09-15T04:09:42.008Z,99128.83
2022-09-15T04:14:44.991Z,99130.33
2022-09-15T04:19:48.178Z,99129.15
2022-09-15T04:24:50.949Z,99132.93
2022-09-15T04:29:53.915Z,99133.67
2022-09-15T04:34:56.642Z,99122.10
2022-09-15T04:39:59.721Z,99128.77
2022-09-15T04:45:02.596Z,99116.45
2022-09-15T04:50:06.063Z,99106.27
2022-09-15T04:55:09.342Z,99108.49
2022-09-15T05:00:13.487Z,99120.87
2022-09-15T05:05:16.377Z,99119.17
2022-09-15T05:10:20.097Z,99117.46
2022-09-15T05:15:24.195Z,99110.16
2022-09-15T05:20:26.961Z,99116.53
2022-09-15T05:25:30.413Z,99115.77
2022-09-15T05:30:38.799Z,99121.52
2022-09-15T05:35:56.690Z,99120.13
2022-09-15T05:41:07.752Z,99120.80
2022-09-15T05:46:11.157Z,99123.96
2022-09-15T05:51:14.484Z,99129.98
2022-09-15T05:56:17.706Z,99129.63
2022-09-15T06:01:26.511Z,99135.59
2022-09-15T06:06:30.688Z,99140.41
2022-09-15T06:11:36.576Z,99138.86
2022-09-15T06:16:39.323Z,99146.42
2022-09-15T06:21:42.162Z,99154.42
2022-09-15T06:26:45.150Z,99153.03
2022-09-15T06:31:48.370Z,99149.23
2022-09-15T06:36:51.087Z,99145.96
2022-09-15T06:42:02.207Z,99146.96
2022-09-15T06:47:07.334Z,99150.28
2022-09-15T06:52:10.029Z,99162.60
2022-09-15T06:57:13.281Z,99166.83
2022-09-15T07:02:16.035Z,99170.14
2022-09-15T07:07:18.931Z,99170.67
2022-09-15T07:12:21.638Z,99174.91
2022-09-15T07:17:26.304Z,99172.05
2022-09-15T07:22:28.992Z,99175.50
2022-09-15T07:27:31.970Z,99177.74
2022-09-15T07:32:34.641Z,99183.89
2022-09-15T07:37:37.366Z,99187.77
2022-09-15T07:42:44.460Z,99192.95
2022-09-15T07:47:47.241Z,99193.00
2022-09-15T07:52:49.899Z,99193.61
2022-09-15T07:58:01.756Z,99204.43
2022-09-15T08:03:04.507Z,99208.91
2022-09-15T08:08:07.245Z,99219.41
2022-09-15T08:13:10.073Z,99219.14
2022-09-15T08:18:13.065Z,99215.27
2022-09-15T08:23:15.874Z,99217.85
2022-09-15T08:28:18.816Z,99224.70
2022-09-15T08:33:21.451Z,99220.55
2022-09-15T08:38:24.156Z,99217.86
2022-09-15T08:43:28.651Z,99220.47
2022-09-15T08:49:03.104Z,99215.93
2022-09-15T08:54:11.770Z,99217.77
2022-09-15T08:59:16.217Z,99212.13
2022-09-15T09:04:33.803Z,99216.67
2022-09-15T09:09:47.369Z,99213.23
2022-09-15T09:15:14.146Z,99216.98
2022-09-15T09:20:36.904Z,99218.95
2022-09-15T09:25:42.046Z,99223.73
2022-09-15T09:30:44.773Z,99219.97
2022-09-15T09:35:51.752Z,99215.59
2022-09-15T09:40:58.579Z,99217.85
2022-09-15T09:46:15.031Z,99221.64
2022-09-15T09:51:40.068Z,99215.27
2022-09-15T09:56:47.308Z,99207.58
2022-09-15T10:02:11.996Z,99212.41
2022-09-15T10:07:17.752Z,99203.11
2022-09-15T10:12:30.508Z,99203.98
2022-09-15T10:17:36.340Z,99198.56
2022-09-15T10:22:39.916Z,99199.63
2022-09-15T10:27:43.204Z,99208.08
2022-09-15T10:32:45.955Z,99203.60
2022-09-15T10:38:12.469Z,99199.52
2022-09-15T10:43:46.154Z,99202.86
2022-09-15T10:49:18.643Z,99199.02
2022-09-15T10:55:03.062Z,99198.88
2022-09-15T11:00:12.704Z,99204.58
2022-09-15T11:05:42.502Z,99211.20
2022-09-15T11:11:00.402Z,99205.17
2022-09-15T11:16:27.198Z,99207.69
2022-09-15T11:21:46.384Z,99206.50
2022-09-15T11:27:07.185Z,99209.55
2022-09-15T11:32:15.180Z,99210.34
2022-09-15T11:37:24.284Z,99205.60
2022-09-15T11:42:52.499Z,99209.87
2022-09-15T11:48:05.265Z,99204.09
2022-09-15T11:53:36.944Z,99206.06
2022-09-15T11:58:48.921Z,99198.91
2022-09-15T12:04:04.065Z,99202.11
2022-09-15T12:09:07.976Z,99197.61
2022-09-15T12:14:16.804Z,99196.55
2022-09-15T12:20:12.858Z,99199.56
2022-09-15T12:25:24.803Z,99206.98
2022-09-15T12:30:42.887Z,99210.42
2022-09-15T12:35:45.931Z,99209.40
2022-09-15T12:40:57.331Z,99213.31
2022-09-15T12:46:00.739Z,99211.80
2022-09-15T12:51:06.145Z,99210.45
2022-09-15T12:56:11.765Z,99210.88
2022-09-15T13:01:24.565Z,99201.09
2022-09-15T13:06:34.313Z,99196.16
2022-09-15T13:11:41.164Z,99194.88
2022-09-15T13:17:04.255Z,99200.25
2022-09-15T13:22:31.481Z,99205.81
2022-09-15T13:27:58.304Z,99205.08
2022-09-15T13:33:26.222Z,99197.91
2022-09-15T13:38:46.195Z,99197.44
2022-09-15T13:44:26.826Z,99192.11
2022-09-15T13:50:29.518Z,99187.49
2022-09-15T13:55:36.820Z,99184.80
2022-09-15T14:00:47.958Z,99182.62
2022-09-15T14:05:51.667Z,99174.02
2022-09-15T14:11:01.181Z,99171.73
2022-09-15T14:16:20.925Z,99171.89
2022-09-15T14:21:29.449Z,99158.86
2022-09-15T14:26:35.456Z,99155.88
2022-09-15T14:31:41.058Z,99151.82
2022-09-15T14:36:43.877Z,99157.69
2022-09-15T14:41:47.060Z,99154.28
2022-09-15T14:46:49.932Z,99150.92
2022-09-15T14:51:53.604Z,99152.63
2022-09-15T14:57:01.557Z,99145.28
2022-09-15T15:02:43.444Z,99142.37
2022-09-15T15:07:46.271Z,99132.66
2022-09-15T15:12:55.060Z,99135.62
2022-09-15T15:17:58.428Z,99127.20
2022-09-15T15:23:15.537Z,99128.67
2022-09-15T15:28:36.080Z,99120.23
2022-09-15T15:33:55.874Z,99114.95
2022-09-15T15:39:01.540Z,99106.19
2022-09-15T15:44:09.644Z,99115.85
2022-09-15T15:49:13.363Z,99116.80
2022-09-15T15:54:16.267Z,99120.70
2022-09-15T15:59:19.285Z,99119.89
2022-09-15T16:04:22.222Z,99123.85
2022-09-15T16:09:24.920Z,99128.48
2022-09-15T16:14:27.639Z,99126.46
2022-09-15T16:19:30.999Z,99129.20
2022-09-15T16:24:33.679Z,99129.47
2022-09-15T16:29:38.171Z,99129.58
2022-09-15T16:34:40.993Z,99128.71
2022-09-15T16:39:43.753Z,99132.69
2022-09-15T16:44:46.761Z,99134.58
2022-09-15T16:49:51.315Z,99139.96
2022-09-15T16:54:56.466Z,99139.23
2022-09-15T16:59:59.982Z,99145.55
2022-09-15T17:05:02.647Z,99146.64
2022-09-15T17:10:06.818Z,99150.58
2022-09-15T17:15:30.881Z,99144.13
2022-09-15T17:20:38.585Z,99143.23
2022-09-15T17:25:48.914Z,99154.38
2022-09-15T17:30:57.847Z,99160.36
2022-09-15T17:36:00.862Z,99163.52
2022-09-15T17:41:03.667Z,99161.92
2022-09-15T17:46:06.933Z,99165.23
2022-09-15T17:51:17.481Z,99164.32
2022-09-15T17:56:20.229Z,99167.98
2022-09-15T18:01:23.028Z,99164.52
2022-09-15T18:06:25.738Z,99171.66
2022-09-15T18:11:28.882Z,99169.48
2022-09-15T18:16:31.535Z,99170.61
2022-09-15T18:21:34.324Z,99172.52
2022-09-15T18:26:37.396Z,99172.06
2022-09-15T18:31:40.620Z,99170.63
2022-09-15T18:36:43.271Z,99169.58
2022-09-15T18:41:46.049Z,99166.23
2022-09-15T18:46:48.878Z,99162.66
2022-09-15T18:51:52.202Z,99160.05
2022-09-15T18:56:55.015Z,99167.41
2022-09-15T19:01:57.837Z,99167.23
2022-09-15T19:07:00.620Z,99171.39
2022-09-15T19:12:04.199Z,99172.35
2022-09-15T19:17:07.026Z,99176.88
2022-09-15T19:22:10.388Z,99173.80
2022-09-15T19:27:13.133Z,99176.60
2022-09-15T19:32:19.971Z,99178.75
2022-09-15T19:37:22.922Z,99184.06
2022-09-15T19:42:26.269Z,99181.38
2022-09-15T19:47:28.958Z,99184.02
2022-09-15T19:52:31.811Z,99189.32
2022-09-15T19:57:34.623Z,99190.98
2022-09-15T20:02:37.433Z,99191.29
2022-09-15T20:07:40.261Z,99189.58
2022-09-15T20:12:43.024Z,99193.25
2022-09-15T20:17:45.703Z,99197.40
2022-09-15T20:22:48.577Z,99200.40
2022-09-15T20:27:54.614Z,99198.08
2022-09-15T20:32:57.313Z,99197.50
2022-09-15T20:37:59.989Z,99196.69
2022-09-15T20:43:02.638Z,99193.58
2022-09-15T20:48:05.338Z,99185.99
2022-09-15T20:53:08.117Z,99188.84
2022-09-15T20:58:10.997Z,99193.84
2022-09-15T21:03:15.262Z,99194.62
2022-09-15T21:08:17.990Z,99195.97
2022-09-15T21:13:24.195Z,99198.05
2022-09-15T21:18:28.691Z,99193.21
2022-09-15T21:23:55.107Z,99199.14
2022-09-15T21:28:57.954Z,99196.34
2022-09-15T21:34:00.574Z,99208.95
2022-09-15T21:39:03.634Z,99213.73
2022-09-15T21:44:06.362Z,99214.38
2022-09-15T21:49:09.220Z,99218.98
2022-09-15T21:54:11.970Z,99224.38
2022-09-15T21:59:33.233Z,99228.70
2022-09-15T22:04:35.955Z,99230.83
2022-09-15T22:09:39.935Z,99233.55
2022-09-15T22:14:42.671Z,99240.10
2022-09-15T22:19:45.388Z,99246.38
2022-09-15T22:24:48.226Z,99248.44
2022-09-15T22:29:50.889Z,99255.02
2022-09-15T22:34:54.812Z,99260.59
2022-09-15T22:39:59.207Z,99264.55
2022-09-15T22:45:02.272Z,99265.40
2022-09-15T22:50:05.219Z,99266.98
2022-09-15T22:55:08.449Z,99267.35
2022-09-15T23:00:12.387Z,99275.27
2022-09-15T23:05:15.119Z,99273.04
2022-09-15T23:10:18.236Z,99276.67
2022-09-15T23:15:20.903Z,99278.77
2022-09-15T23:20:23.616Z,99278.77
2022-09-15T23:25:26.316Z,99277.42
2022-09-15T23:30:29.163Z,99278.86
2022-09-15T23:35:31.901Z,99277.05
2022-09-15T23:40:34.600Z,99278.55
2022-09-15T23:45:37.573Z,99276.83
2022-09-15T23:50:40.667Z,99277.73
2022-09-15T23:55:43.550Z,99277.17
